Time;durP1;ratioP1;P1;durP2;ratioP2;P2;SDS_P1;SDS_P2;PMS_P1;PMS_P2;Temp;Humidity;BMP_temperature;BMP_pressure;BME280_temperature;BME280_humidity;BME280_pressure;Samples;Min_cycle;Max_cycle;Signal;HPM_P1;HPM_P2
2023/03/08 00:01:33;;;;;;;27.60;18.50;;;;;;;2.27;66.52;98178.23;107280;1260;73767;-40
2023/03/08 00:04:03;;;;;;;26.90;18.40;;;;;;;2.34;66.39;98180.39;107250;1260;60737;-41
2023/03/08 00:06:31;;;;;;;25.90;18.50;;;;;;;2.37;66.41;98183.38;107265;1257;61533;-41
2023/03/08 00:09:05;;;;;;;29.20;19.30;;;;;;;2.37;66.63;98179.64;107244;1256;72956;-41
2023/03/08 00:11:33;;;;;;;27.10;18.70;;;;;;;2.38;66.59;98179.66;107279;1257;68596;-40
2023/03/08 00:14:02;;;;;;;30.80;19.60;;;;;;;2.35;66.54;98176.74;107245;1257;73881;-40
2023/03/08 00:16:30;;;;;;;31.60;20.20;;;;;;;2.32;66.70;98172.77;107275;1257;60680;-40
2023/03/08 00:18:59;;;;;;;30.70;19.60;;;;;;;2.29;66.69;98170.05;107301;1257;61524;-41
2023/03/08 00:21:28;;;;;;;22.10;14.80;;;;;;;2.27;67.01;98172.14;107225;1257;75137;-40
2023/03/08 00:23:58;;;;;;;28.40;19.10;;;;;;;2.27;66.81;98161.50;107265;1258;69898;-41
2023/03/08 00:26:27;;;;;;;29.50;18.80;;;;;;;2.32;67.10;98154.10;107117;1257;73792;-40
2023/03/08 00:28:55;;;;;;;31.50;19.60;;;;;;;2.36;66.98;98153.17;107126;1256;60742;-41
2023/03/08 00:31:25;;;;;;;32.00;20.20;;;;;;;2.39;66.93;98148.82;107157;1258;60564;-40
2023/03/08 00:33:54;;;;;;;33.00;20.40;;;;;;;2.39;67.20;98150.30;107235;1260;75274;-41
2023/03/08 00:36:24;;;;;;;32.00;19.70;;;;;;;2.38;67.23;98156.98;107241;1257;69918;-41
2023/03/08 00:38:55;;;;;;;33.10;21.70;;;;;;;2.36;67.26;98152.33;107258;1257;73517;-41
2023/03/08 00:41:23;;;;;;;29.90;19.30;;;;;;;2.32;67.58;98146.86;107212;1257;61059;-41
2023/03/08 00:43:52;;;;;;;33.40;20.10;;;;;;;2.31;67.69;98143.77;107233;1257;61553;-41
2023/03/08 00:46:21;;;;;;;31.40;19.00;;;;;;;2.31;67.79;98140.08;107237;1257;75215;-41
2023/03/08 00:48:53;;;;;;;30.40;19.60;;;;;;;2.35;67.96;98127.85;107292;1256;69438;-40
2023/03/08 00:51:22;;;;;;;27.80;17.40;;;;;;;2.43;67.73;98121.30;107196;1257;73933;-41
2023/03/08 00:53:52;;;;;;;30.00;19.80;;;;;;;2.49;67.74;98113.76;107223;1257;60970;-41
2023/03/08 00:56:21;;;;;;;30.70;20.00;;;;;;;2.52;67.84;98110.25;107265;1257;61451;-41
2023/03/08 00:58:50;;;;;;;24.40;15.80;;;;;;;2.54;67.66;98112.98;107332;1257;74614;-40
2023/03/08 01:01:19;;;;;;;30.80;18.70;;;;;;;2.55;67.84;98111.81;107286;1257;69710;-40
2023/03/08 01:03:50;;;;;;;28.70;19.80;;;;;;;2.55;67.57;98110.27;107300;1257;73553;-41
2023/03/08 01:06:19;;;;;;;31.30;20.30;;;;;;;2.54;67.88;98117.29;107252;1257;60498;-41
2023/03/08 01:08:49;;;;;;;;;;;;;;;2.53;67.68;98118.38;107247;1257;61512;-41
2023/03/08 01:11:24;;;;;;;29.90;20.10;;;;;;;2.45;67.93;98116.23;107278;1257;72923;-40
2023/03/08 01:13:53;;;;;;;30.10;19.80;;;;;;;2.41;68.31;98115.12;107305;1257;69987;-41
2023/03/08 01:16:26;;;;;;;28.00;18.00;;;;;;;2.46;68.35;98115.88;107258;1257;73790;-40
2023/03/08 01:18:57;;;;;;;27.80;18.80;;;;;;;2.52;68.23;98116.60;107283;1257;60083;-40
2023/03/08 01:21:27;;;;;;;30.50;19.20;;;;;;;2.54;68.25;98118.36;107293;1256;61326;-41
2023/03/08 01:23:55;;;;;;;29.80;19.80;;;;;;;2.56;68.25;98120.61;107279;1257;75116;-41
2023/03/08 01:26:25;;;;;;;28.60;19.50;;;;;;;2.58;68.05;98122.76;107213;1257;69976;-41
2023/03/08 01:28:56;;;;;;;31.20;19.10;;;;;;;2.58;68.09;98124.44;107228;1256;73602;-40
2023/03/08 01:31:27;;;;;;;30.10;19.80;;;;;;;2.57;68.14;98123.02;107140;1260;60794;-40
2023/03/08 01:33:56;;;;;;;31.90;19.30;;;;;;;2.56;68.40;98116.66;107132;1257;60393;-40
2023/03/08 01:36:26;;;;;;;28.60;17.40;;;;;;;2.62;68.22;98110.32;107142;1257;75026;-40
2023/03/08 01:38:55;;;;;;;29.30;18.30;;;;;;;2.72;68.09;98102.75;107160;1260;70018;-41
2023/03/08 01:41:25;;;;;;;28.80;18.70;;;;;;;2.75;68.07;98102.69;107181;1257;74007;-40
2023/03/08 01:43:56;;;;;;;28.50;18.60;;;;;;;2.75;68.09;98108.95;107050;1258;59697;-41
2023/03/08 01:46:35;;;;;;;23.30;14.90;;;;;;;2.75;68.07;98111.10;107198;1257;61221;-41
2023/03/08 01:49:26;;;;;;;30.00;19.50;;;;;;;2.75;68.33;98100.31;107248;1257;75062;-41
2023/03/08 01:52:10;;;;;;;28.30;19.10;;;;;;;2.71;68.41;98099.89;107227;1258;69730;-41
2023/03/08 01:54:42;;;;;;;28.70;18.50;;;;;;;2.70;68.55;98101.16;107195;1257;73883;-41
2023/03/08 01:57:24;;;;;;;21.40;14.20;;;;;;;2.68;68.68;98098.12;107228;1258;62402;-41
2023/03/08 02:00:03;;;;;;;26.40;18.00;;;;;;;2.73;68.52;98097.58;106963;1257;61388;-41
2023/03/08 02:02:57;;;;;;;28.30;18.60;;;;;;;2.78;68.46;98102.45;107234;1262;74499;-40
2023/03/08 02:05:26;;;;;;;26.50;18.80;;;;;;;2.78;68.40;98097.20;107146;1258;69767;-40
2023/03/08 02:07:58;;;;;;;28.40;18.30;;;;;;;2.79;68.53;98094.63;107225;1257;73749;-41
2023/03/08 02:10:31;;;;;;;29.90;19.10;;;;;;;2.81;68.38;98086.64;107075;1257;60579;-40
2023/03/08 02:13:06;;;;;;;31.80;19.70;;;;;;;2.83;68.55;98088.00;107228;1258;61177;-41
2023/03/08 02:15:37;;;;;;;29.80;19.80;;;;;;;2.81;68.58;98086.95;107169;1257;74420;-41
2023/03/08 02:18:06;;;;;;;27.90;18.20;;;;;;;2.80;68.33;98083.63;107229;1257;69163;-41
2023/03/08 02:20:39;;;;;;;30.20;18.20;;;;;;;2.83;68.50;98083.34;107126;1257;74051;-41
2023/03/08 02:23:08;;;;;;;;;;;;;;;2.88;68.55;98079.14;107090;1258;60582;-40
2023/03/08 02:25:37;;;;;;;26.70;17.60;;;;;;;2.84;68.21;98074.36;105668;1258;1003092;-41
2023/03/08 02:28:08;;;;;;;28.80;19.10;;;;;;;2.83;68.57;98076.32;107186;1258;74867;-41
2023/03/08 02:30:37;;;;;;;31.10;19.40;;;;;;;2.85;68.45;98080.35;107109;1257;69926;-41
2023/03/08 02:33:06;;;;;;;32.10;19.50;;;;;;;2.85;68.49;98079.36;107227;1259;73667;-40
2023/03/08 02:35:37;;;;;;;28.50;19.30;;;;;;;2.83;68.60;98078.14;107216;1257;59786;-40
2023/03/08 02:38:05;;;;;;;30.30;19.10;;;;;;;2.81;68.44;98077.61;107228;1257;60409;-41
2023/03/08 02:40:37;;;;;;;28.50;18.30;;;;;;;2.81;68.69;98081.08;107207;1257;74486;-41
2023/03/08 02:43:05;;;;;;;28.20;18.60;;;;;;;2.86;68.71;98079.77;107228;1257;69734;-40
2023/03/08 02:45:35;;;;;;;28.60;18.60;;;;;;;2.93;68.36;98081.65;107188;1257;73536;-41
2023/03/08 02:48:05;;;;;;;29.80;18.70;;;;;;;2.94;68.43;98078.00;107164;1258;60803;-41
2023/03/08 02:50:35;;;;;;;29.90;18.70;;;;;;;2.92;68.24;98072.29;107170;1257;60558;-41
2023/03/08 02:53:04;;;;;;;27.30;17.80;;;;;;;2.90;68.30;98071.30;107117;1257;72103;-41
2023/03/08 02:55:36;;;;;;;30.30;20.00;;;;;;;2.86;68.27;98063.24;107108;1257;69600;-41
2023/03/08 02:58:09;;;;;;;29.10;19.60;;;;;;;2.85;68.33;98063.29;107076;1257;73683;-40
2023/03/08 03:00:37;;;;;;;28.00;18.60;;;;;;;2.84;68.46;98061.20;107090;1261;60735;-41
2023/03/08 03:03:07;;;;;;;;;;;;;;;2.86;68.54;98061.55;107144;1257;60358;-40
2023/03/08 03:05:42;;;;;;;28.30;17.70;;;;;;;2.87;68.36;98062.13;107187;1262;75138;-40
2023/03/08 03:08:15;;;;;;;25.50;17.60;;;;;;;2.90;68.33;98061.08;107124;1256;69893;-41
2023/03/08 03:10:44;;;;;;;27.60;17.60;;;;;;;2.90;68.40;98062.59;107176;1257;73852;-41
2023/03/08 03:13:16;;;;;;;28.20;18.90;;;;;;;2.86;68.42;98057.89;107263;1257;61059;-39
2023/03/08 03:15:44;;;;;;;29.80;18.60;;;;;;;2.84;68.63;98057.00;107153;1256;60512;-39
2023/03/08 03:18:15;;;;;;;30.40;18.10;;;;;;;2.82;68.52;98051.48;107274;1257;73996;-39
2023/03/08 03:20:43;;;;;;;26.10;17.10;;;;;;;2.79;68.69;98047.53;107251;1257;69904;-39
2023/03/08 03:23:15;;;;;;;30.40;17.80;;;;;;;2.78;68.58;98049.79;107245;1257;73788;-39
2023/03/08 03:25:49;;;;;;;26.40;17.10;;;;;;;2.79;68.84;98041.34;107202;1257;62382;-39
2023/03/08 03:28:20;;;;;;;27.70;18.10;;;;;;;2.84;68.54;98042.70;107285;1256;60701;-39
2023/03/08 03:30:50;;;;;;;28.70;18.00;;;;;;;2.76;68.71;98025.96;107281;1257;74823;-39
2023/03/08 03:33:20;;;;;;;26.20;17.20;;;;;;;2.83;68.72;98031.03;107312;1257;69878;-40
2023/03/08 03:35:51;;;;;;;26.40;17.80;;;;;;;2.82;68.71;98031.17;107276;1256;73613;-40
2023/03/08 03:38:22;;;;;;;29.10;18.20;;;;;;;2.79;68.64;98033.08;107345;1257;60479;-40
2023/03/08 03:41:21;;;;;;;30.50;19.00;;;;;;;2.78;68.85;98028.98;107094;1257;60380;-40
2023/03/08 03:43:53;;;;;;;27.40;17.20;;;;;;;2.78;68.77;98022.55;107294;1257;74564;-40
2023/03/08 03:46:26;;;;;;;25.70;16.50;;;;;;;2.82;68.78;98008.77;107239;1257;69568;-39
2023/03/08 03:48:55;;;;;;;26.90;18.10;;;;;;;2.89;68.37;98001.54;107291;1257;73836;-40
2023/03/08 03:51:25;;;;;;;25.70;17.40;;;;;;;2.90;68.56;97999.20;107254;1260;61427;-40
2023/03/08 03:54:03;;;;;;;27.80;17.70;;;;;;;2.89;68.46;97996.58;107234;1257;61496;-39
2023/03/08 03:56:34;;;;;;;30.90;18.10;;;;;;;2.88;68.34;97998.30;107160;1256;74834;-40
2023/03/08 03:59:03;;;;;;;26.60;17.90;;;;;;;2.87;68.28;97996.28;107139;1256;70162;-41
2023/03/08 04:01:39;;;;;;;28.40;18.60;;;;;;;2.85;68.56;97996.15;107108;1257;73007;-40
2023/03/08 04:04:21;;;;;;;28.60;18.50;;;;;;;2.82;68.61;97994.23;107055;1257;60637;-40
2023/03/08 04:06:52;;;;;;;24.80;17.40;;;;;;;2.82;68.63;97993.77;107104;1257;60447;-40
2023/03/08 04:09:24;;;;;;;29.50;17.80;;;;;;;2.86;68.42;97993.73;107203;1257;74669;-40
2023/03/08 04:12:06;;;;;;;26.40;16.80;;;;;;;2.85;68.23;97981.70;107108;1257;69805;-40
2023/03/08 04:14:36;;;;;;;36.10;19.20;;;;;;;2.94;68.35;98003.19;106333;1257;1003075;-40
2023/03/08 04:17:06;;;;;;;28.60;18.20;;;;;;;2.92;68.29;98010.94;107004;1259;60803;-40
2023/03/08 04:19:54;;;;;;;27.40;17.70;;;;;;;2.89;68.52;98014.21;107190;1260;61443;-40
2023/03/08 04:22:24;;;;;;;24.80;17.40;;;;;;;2.83;68.40;98007.20;107031;1260;74876;-40
2023/03/08 04:24:57;;;;;;;29.10;18.40;;;;;;;2.80;68.63;98004.34;107182;1257;68244;-40
2023/03/08 04:27:34;;;;;;;27.40;17.40;;;;;;;2.76;68.86;97999.64;107153;1257;73608;-40
2023/03/08 04:30:03;;;;;;;27.40;17.30;;;;;;;2.78;68.72;97997.63;107192;1257;62863;-40
2023/03/08 04:32:33;;;;;;;;;;;;;;;2.83;68.54;98000.21;107292;1257;60188;-40
2023/03/08 04:35:02;;;;;;;26.20;17.20;;;;;;;2.78;68.73;98002.06;107176;1257;75035;-40
2023/03/08 04:37:32;;;;;;;26.30;17.80;;;;;;;2.72;68.89;98006.80;107219;1257;68718;-40
2023/03/08 04:40:09;;;;;;;25.30;17.30;;;;;;;2.72;68.91;98005.88;106876;1257;1003776;-40
2023/03/08 04:42:46;;;;;;;26.20;17.40;;;;;;;2.71;69.12;97994.02;107254;1257;60770;-40
2023/03/08 04:45:16;;;;;;;25.50;17.80;;;;;;;2.69;69.10;97988.60;107171;1257;60203;-40
2023/03/08 04:47:45;;;;;;;25.90;17.00;;;;;;;2.62;68.95;97973.34;107229;1257;75118;-40
2023/03/08 04:50:14;;;;;;;27.60;17.20;;;;;;;2.77;68.88;97989.65;107331;1257;69866;-40
2023/03/08 04:52:43;;;;;;;26.60;17.20;;;;;;;2.86;68.65;97986.91;107254;1260;71733;-40
2023/03/08 04:55:12;;;;;;;29.00;17.80;;;;;;;2.87;68.45;97990.55;107176;1257;60552;-40
2023/03/08 04:57:41;;;;;;;18.70;13.60;;;;;;;2.85;68.39;97988.73;107248;1261;61492;-40
2023/03/08 05:00:11;;;;;;;29.40;18.20;;;;;;;2.84;68.50;97996.96;107256;1257;74823;-40
2023/03/08 05:02:41;;;;;;;27.20;17.10;;;;;;;2.82;68.50;97995.14;107147;1257;68137;-40
2023/03/08 05:05:13;;;;;;;26.70;17.70;;;;;;;2.81;68.40;97995.49;107093;1257;73600;-40
2023/03/08 05:07:43;;;;;;;24.60;16.90;;;;;;;2.79;68.39;97999.42;107165;1257;62499;-40
2023/03/08 05:10:13;;;;;;;26.40;17.20;;;;;;;2.81;68.51;97992.45;107114;1257;61239;-40
2023/03/08 05:12:42;;;;;;;29.30;18.50;;;;;;;2.87;68.60;97990.48;107169;1257;74768;-40
2023/03/08 05:15:11;;;;;;;24.80;17.30;;;;;;;2.90;68.44;97987.34;107114;1257;69927;-40
2023/03/08 05:17:41;;;;;;;26.30;18.20;;;;;;;2.89;68.48;97985.87;107117;1257;73436;-40
2023/03/08 05:20:15;;;;;;;24.10;16.50;;;;;;;2.89;68.43;97989.00;107153;1257;60559;-40
2023/03/08 05:22:43;;;;;;;27.30;17.90;;;;;;;2.87;68.44;97986.63;107091;1257;184697;-40
2023/03/08 05:26:10;;;;;;;26.70;17.60;;;;;;;2.91;68.46;97985.91;104121;1293;600514;-40
2023/03/08 05:28:43;;;;;;;30.00;17.60;;;;;;;2.91;68.41;97982.24;106624;1266;60400;-40
2023/03/08 05:31:12;;;;;;;25.70;17.50;;;;;;;2.96;68.31;97973.96;106611;1270;60411;-40
2023/03/08 05:33:42;;;;;;;;;;;;;;;3.06;67.96;97969.85;106638;1267;70326;-40
2023/03/08 05:36:11;;;;;;;32.70;19.00;;;;;;;3.05;68.00;97965.39;106621;1267;68827;-40
2023/03/08 05:38:40;;;;;;;31.90;17.90;;;;;;;3.02;68.06;97969.98;106520;1267;197781;-41
2023/03/08 05:41:13;;;;;;;21.70;14.00;;;;;;;3.05;68.01;97965.54;106816;1264;59336;-40
2023/03/08 05:43:45;;;;;;;33.30;18.70;;;;;;;3.09;67.89;97960.36;106663;1264;61587;-40
2023/03/08 05:46:15;;;;;;;27.70;17.50;;;;;;;3.09;67.94;97951.80;106842;1268;73491;-40
2023/03/08 05:48:44;;;;;;;27.40;17.90;;;;;;;3.12;67.86;97946.59;106742;1269;67864;-40
2023/03/08 05:51:15;;;;;;;31.20;19.60;;;;;;;3.15;67.74;97947.37;106814;1264;74000;-40
2023/03/08 05:53:44;;;;;;;27.00;18.30;;;;;;;3.11;67.69;97945.81;106808;1263;62157;-40
2023/03/08 05:56:16;;;;;;;30.20;18.70;;;;;;;3.20;67.65;97953.14;106759;1269;61120;-41
2023/03/08 05:58:51;;;;;;;33.60;19.80;;;;;;;3.27;67.60;97956.91;106788;1269;74005;-41
2023/03/08 06:01:22;;;;;;;26.90;18.30;;;;;;;3.29;67.44;97958.73;106823;1266;69944;-40
2023/03/08 06:03:54;;;;;;;28.50;19.60;;;;;;;3.29;67.41;97957.42;106808;1268;73702;-40
2023/03/08 06:06:25;;;;;;;27.40;19.10;;;;;;;3.30;67.27;97950.80;106665;1266;60782;-40
2023/03/08 06:08:55;;;;;;;;;;;;;;;3.32;67.28;97957.20;106733;1263;62642;-41
2023/03/08 06:11:29;;;;;;;31.60;19.20;;;;;;;3.31;67.32;97961.55;106698;1263;74097;-41
2023/03/08 06:13:59;;;;;;;28.60;19.20;;;;;;;3.33;67.51;97959.27;106749;1264;69750;-40
2023/03/08 06:16:29;;;;;;;31.90;19.10;;;;;;;3.39;67.27;97965.26;106701;1263;72876;-41
2023/03/08 06:19:00;;;;;;;29.80;19.30;;;;;;;3.43;67.14;97967.35;106732;1263;60569;-40
2023/03/08 06:21:29;;;;;;;26.90;18.00;;;;;;;3.50;67.10;97972.40;106669;1264;59347;-41
2023/03/08 06:24:03;;;;;;;25.90;17.80;;;;;;;3.61;66.84;97970.99;106721;1263;72514;-41
2023/03/08 06:26:32;;;;;;;30.00;19.30;;;;;;;3.68;66.72;97976.13;106796;1264;69964;-40
2023/03/08 06:29:01;;;;;;;26.50;17.90;;;;;;;3.72;66.62;97976.44;106842;1264;73916;-40
2023/03/08 06:31:31;;;;;;;25.40;18.90;;;;;;;3.75;66.61;97977.53;106850;1264;59755;-41
2023/03/08 06:34:00;;;;;;;27.80;18.30;;;;;;;3.78;66.50;97978.81;106749;1263;61016;-40
2023/03/08 06:36:32;;;;;;;31.30;19.50;;;;;;;3.80;66.63;97972.36;106760;1264;74269;-41
2023/03/08 06:39:01;;;;;;;27.90;19.30;;;;;;;3.83;66.59;97963.02;106787;1269;69654;-40
2023/03/08 06:41:31;;;;;;;29.80;19.50;;;;;;;3.87;65.97;97959.64;106780;1263;73206;-40
2023/03/08 06:44:00;;;;;;;30.70;18.80;;;;;;;3.92;65.99;97951.79;107598;1253;61955;-40
2023/03/08 06:46:29;;;;;;;27.40;17.90;;;;;;;4.04;65.83;97948.05;107615;1253;60291;-41
2023/03/08 06:48:58;;;;;;;26.90;17.70;;;;;;;4.12;65.56;97946.18;107627;1254;74305;-41
2023/03/08 06:51:28;;;;;;;27.60;19.20;;;;;;;4.10;65.39;97931.05;107559;1254;69689;-41
2023/03/08 06:54:03;;;;;;;28.40;18.80;;;;;;;4.23;65.00;97944.02;107488;1254;72912;-41
2023/03/08 06:56:34;;;;;;;26.80;17.80;;;;;;;4.24;64.90;97960.76;107525;1254;60528;-41
2023/03/08 06:59:02;;;;;;;27.30;18.50;;;;;;;4.26;64.89;97955.82;107507;1254;61132;-41
2023/03/08 07:01:31;;;;;;;29.60;19.40;;;;;;;4.30;64.93;97950.84;107591;1253;74341;-40
2023/03/08 07:04:00;;;;;;;28.40;17.90;;;;;;;4.33;64.66;97952.35;107628;1253;69736;-40
2023/03/08 07:06:28;;;;;;;26.10;17.50;;;;;;;4.35;64.84;97948.26;107548;1254;73854;-40
2023/03/08 07:08:59;;;;;;;31.10;19.30;;;;;;;4.37;64.79;97933.29;107536;1257;60530;-40
2023/03/08 07:11:30;;;;;;;26.20;17.50;;;;;;;4.40;64.52;97921.52;107499;1253;61269;-40
2023/03/08 07:13:58;;;;;;;;;;;;;;;4.49;64.50;97944.64;107552;1253;74060;-40
2023/03/08 07:16:28;;;;;;;19.60;13.30;;;;;;;4.55;64.21;97953.48;107627;1256;68659;-40
2023/03/08 07:18:56;;;;;;;27.20;16.70;;;;;;;4.56;63.93;97956.52;107595;1253;72644;-40
2023/03/08 07:21:25;;;;;;;26.80;17.30;;;;;;;4.60;63.93;97955.73;107583;1253;60789;-40
2023/03/08 07:23:53;;;;;;;26.80;17.70;;;;;;;4.63;63.71;97952.11;107552;1253;61540;-40
2023/03/08 07:26:22;;;;;;;25.60;17.80;;;;;;;4.66;63.62;97953.55;107543;1253;73919;-40
2023/03/08 07:28:50;;;;;;;28.40;17.90;;;;;;;4.69;63.51;97949.09;107541;1253;69945;-40
2023/03/08 07:31:19;;;;;;;24.30;17.00;;;;;;;4.70;63.38;97948.80;107541;1253;73665;-40
2023/03/08 07:33:48;;;;;;;30.20;18.40;;;;;;;4.70;63.20;97946.96;107563;1253;60616;-40
2023/03/08 07:36:17;;;;;;;27.90;17.90;;;;;;;4.69;63.41;97940.52;107596;1254;61595;-40
2023/03/08 07:38:46;;;;;;;27.40;18.40;;;;;;;4.70;63.41;97938.75;107639;1253;74233;-39
2023/03/08 07:41:18;;;;;;;25.70;16.80;;;;;;;4.72;63.35;97935.81;107524;1254;69770;-40
2023/03/08 07:43:46;;;;;;;23.50;15.90;;;;;;;4.84;63.36;97932.48;107533;1253;73787;-40
2023/03/08 07:46:23;;;;;;;22.70;16.10;;;;;;;5.02;63.05;97929.52;107587;1253;60574;-40
2023/03/08 07:48:52;;;;;;;22.60;16.30;;;;;;;5.14;62.55;97926.11;107576;1253;61527;-40
2023/03/08 07:51:22;;;;;;;25.10;16.90;;;;;;;5.23;62.07;97932.33;107563;1254;74225;-40
2023/03/08 07:53:51;;;;;;;23.00;15.70;;;;;;;5.32;61.65;97938.92;107550;1253;69711;-40
2023/03/08 07:56:20;;;;;;;24.80;16.90;;;;;;;5.39;61.73;97941.73;107558;1254;73886;-40
2023/03/08 07:58:50;;;;;;;26.00;17.00;;;;;;;5.43;61.49;97936.03;107574;1254;60353;-40
2023/03/08 08:01:18;;;;;;;26.20;17.30;;;;;;;5.43;61.44;97936.41;107634;1253;61544;-41
2023/03/08 08:03:47;;;;;;;27.20;17.00;;;;;;;5.39;61.33;97930.98;107579;1253;73150;-41
2023/03/08 08:06:16;;;;;;;27.50;16.70;;;;;;;5.39;61.12;97936.20;107674;1254;68684;-41
2023/03/08 08:08:44;;;;;;;24.90;17.30;;;;;;;5.36;61.54;97941.00;107575;1253;74113;-41
2023/03/08 08:11:15;;;;;;;26.50;17.40;;;;;;;5.35;61.68;97940.06;107626;1254;60745;-41
2023/03/08 08:13:48;;;;;;;28.90;17.20;;;;;;;5.35;61.83;97935.83;107560;1254;61435;-41
2023/03/08 08:16:17;;;;;;;28.40;17.60;;;;;;;5.35;61.85;97935.92;107523;1253;74253;-41
2023/03/08 08:18:45;;;;;;;28.00;16.90;;;;;;;5.36;61.83;97932.17;107609;1254;68947;-41
2023/03/08 08:21:14;;;;;;;23.00;15.10;;;;;;;5.38;61.92;97929.20;107505;1253;72878;-41
2023/03/08 08:23:43;;;;;;;23.00;15.20;;;;;;;5.46;61.66;97920.73;107561;1253;62309;-41
2023/03/08 08:26:16;;;;;;;22.60;15.20;;;;;;;5.58;61.57;97923.75;107585;1252;61500;-41
2023/03/08 08:28:46;;;;;;;24.10;14.60;;;;;;;5.68;61.40;97925.91;107604;1254;74205;-41
2023/03/08 08:31:18;;;;;;;20.30;14.70;;;;;;;5.80;61.28;97924.99;107633;1254;68593;-41
2023/03/08 08:33:48;;;;;;;22.70;15.40;;;;;;;5.92;60.91;97930.42;107553;1254;73880;-41
2023/03/08 08:36:18;;;;;;;25.50;16.70;;;;;;;6.01;60.45;97935.55;107619;1254;60800;-41
2023/03/08 08:38:48;;;;;;;22.90;16.10;;;;;;;6.07;60.46;97925.80;107601;1254;59638;-41
2023/03/08 08:41:18;;;;;;;47.00;27.20;;;;;;;6.13;60.63;97921.11;107580;1254;73008;-41
2023/03/08 08:43:46;;;;;;;30.70;22.40;;;;;;;6.21;60.58;97921.68;107576;1254;68545;-41
2023/03/08 08:46:15;;;;;;;22.80;16.00;;;;;;;6.26;60.38;97923.28;107585;1254;73878;-41
2023/03/08 08:48:43;;;;;;;30.60;25.90;;;;;;;6.30;60.57;97926.86;107577;1254;60785;-41
2023/03/08 08:51:14;;;;;;;23.90;16.90;;;;;;;6.32;60.60;97933.19;107590;1254;61514;-41
2023/03/08 08:53:43;;;;;;;26.60;17.80;;;;;;;6.31;60.24;97931.80;107574;1253;74254;-41
2023/03/08 08:56:16;;;;;;;29.40;21.20;;;;;;;6.31;60.11;97925.80;107583;1254;68128;-41
2023/03/08 08:58:56;;;;;;;24.00;16.80;;;;;;;6.30;60.29;97926.40;107590;1257;73658;-41
2023/03/08 09:01:26;;;;;;;26.60;18.70;;;;;;;6.28;60.27;97932.15;107609;1253;60346;-41
2023/03/08 09:04:15;;;;;;;31.60;22.70;;;;;;;6.26;60.30;97939.11;107569;1253;62615;-41
2023/03/08 09:06:44;;;;;;;25.00;17.90;;;;;;;6.21;60.79;97942.13;107605;1253;72814;-41
2023/03/08 09:09:14;;;;;;;35.60;27.10;;;;;;;6.18;61.05;97940.78;107589;1254;69912;-41
2023/03/08 09:11:48;;;;;;;52.60;40.00;;;;;;;6.19;61.22;97935.71;107556;1253;73574;-41
2023/03/08 09:14:24;;;;;;;36.10;26.90;;;;;;;6.26;61.23;97935.73;107581;1254;62474;-41
2023/03/08 09:16:53;;;;;;;25.10;17.90;;;;;;;6.36;61.13;97937.09;107578;1253;61546;-41
2023/03/08 09:19:22;;;;;;;31.80;21.00;;;;;;;6.42;61.28;97940.31;107577;1253;74179;-41
2023/03/08 09:21:50;;;;;;;41.80;30.50;;;;;;;6.45;60.80;97945.36;107573;1254;70066;-41
2023/03/08 09:24:19;;;;;;;35.20;24.70;;;;;;;6.46;60.57;97938.90;106849;1254;1003332;-41
2023/03/08 09:26:49;;;;;;;;;;;;;;;6.43;60.24;97943.10;107558;1254;60471;-41
2023/03/08 09:29:18;;;;;;;31.40;21.80;;;;;;;6.35;60.24;97952.00;106850;1254;1003395;-41
2023/03/08 09:31:47;;;;;;;24.60;18.90;;;;;;;6.30;60.82;97953.55;107564;1254;73264;-41
2023/03/08 09:34:16;;;;;;;19.90;14.20;;;;;;;6.27;61.07;97943.30;107573;1253;69882;-41
2023/03/08 09:36:46;;;;;;;21.30;16.70;;;;;;;6.22;61.22;97945.45;107568;1253;73669;-41
2023/03/08 09:39:19;;;;;;;22.70;16.30;;;;;;;6.17;61.83;97951.07;107565;1254;60618;-41
2023/03/08 09:41:58;;;;;;;42.10;29.60;;;;;;;6.11;62.42;97947.22;107572;1254;61018;-41
2023/03/08 09:44:48;;;;;;;29.60;20.00;;;;;;;6.06;63.18;97956.52;107568;1254;75124;-41
2023/03/08 09:47:38;;;;;;;23.80;16.50;;;;;;;6.09;63.24;97959.64;107576;1254;69753;-40
2023/03/08 09:50:11;;;;;;;23.30;15.20;;;;;;;6.08;63.75;97945.80;107534;1254;73858;-41
2023/03/08 09:52:58;;;;;;;42.20;27.20;;;;;;;6.07;64.60;97939.02;107565;1254;61610;-40
2023/03/08 09:55:30;;;;;;;61.80;38.80;;;;;;;6.09;65.43;97927.74;107584;1253;61108;-40
2023/03/08 09:58:02;;;;;;;55.60;36.40;;;;;;;6.12;66.27;97918.34;107558;1253;75166;-40
2023/03/08 10:00:33;;;;;;;34.90;24.80;;;;;;;6.16;66.65;97919.08;107509;1258;69841;-40
2023/03/08 10:04:00;;;;;;;27.20;18.90;;;;;;;6.19;66.71;97922.27;107571;1254;73928;-40
2023/03/08 10:06:35;;;;;;;32.50;23.80;;;;;;;6.28;66.57;97938.93;106961;1260;60763;-40
2023/03/08 10:09:33;;;;;;;29.20;19.30;;;;;;;6.30;66.66;97945.17;106784;1261;61527;-40
2023/03/08 10:12:11;;;;;;;28.90;20.30;;;;;;;6.34;67.17;97939.52;107376;1254;74850;-40
2023/03/08 10:14:53;;;;;;;29.40;21.70;;;;;;;6.33;67.17;97940.83;107530;1254;70010;-40
2023/03/08 10:17:53;;;;;;;30.10;20.60;;;;;;;6.31;66.59;97932.87;107558;1254;73924;-40
2023/03/08 10:20:27;;;;;;;30.50;21.00;;;;;;;6.25;66.47;97927.48;107576;1254;62422;-40
2023/03/08 10:22:58;;;;;;;19.70;12.90;;;;;;;6.24;66.71;97923.48;107504;1257;61496;-40
2023/03/08 10:25:32;;;;;;;26.20;17.10;;;;;;;6.20;66.82;97926.89;107574;1257;75021;-40
2023/03/08 10:28:03;;;;;;;24.80;15.70;;;;;;;6.15;67.29;97928.52;107608;1257;69952;-40
2023/03/08 10:30:34;;;;;;;20.20;15.10;;;;;;;6.12;67.96;97923.86;107623;1254;70872;-40
2023/03/08 10:33:06;;;;;;;23.30;15.10;;;;;;;6.09;68.37;97921.84;107559;1253;60823;-40
2023/03/08 10:35:37;;;;;;;28.00;18.70;;;;;;;6.09;69.14;97926.73;107526;1254;61478;-41
2023/03/08 10:38:16;;;;;;;29.30;20.50;;;;;;;6.14;69.55;97923.58;107560;1254;74787;-40
2023/03/08 10:40:45;;;;;;;32.20;21.10;;;;;;;6.15;69.41;97925.90;107592;1257;69929;-40
2023/03/08 10:43:26;;;;;;;27.50;19.40;;;;;;;6.12;69.49;97922.09;107605;1254;73836;-40
2023/03/08 10:46:00;;;;;;;40.00;26.70;;;;;;;6.07;69.40;97924.26;106820;1257;1003698;-40
2023/03/08 10:48:29;;;;;;;38.70;28.50;;;;;;;5.99;69.64;97925.46;107613;1254;60301;-41
2023/03/08 10:51:03;;;;;;;32.40;24.10;;;;;;;6.01;70.14;97919.66;107607;1254;73028;-40
2023/03/08 10:53:31;;;;;;;20.80;15.00;;;;;;;6.08;70.44;97902.45;107609;1254;67320;-40
2023/03/08 10:56:20;;;;;;;51.20;33.40;;;;;;;6.13;70.46;97893.44;107363;1254;74089;-40
2023/03/08 10:58:48;;;;;;;90.80;61.00;;;;;;;6.18;70.60;97886.89;107528;1254;61373;-41
2023/03/08 11:01:28;;;;;;;76.20;51.80;;;;;;;6.19;70.77;97887.05;107393;1253;60918;-40
2023/03/08 11:04:12;;;;;;;;;;;;;;;6.25;71.32;97883.21;107574;1253;75609;-40
2023/03/08 11:06:41;;;;;;;27.20;17.50;;;;;;;6.41;70.89;97872.62;107569;1254;69542;-40
2023/03/08 11:09:37;;;;;;;31.50;22.00;;;;;;;6.58;70.30;97874.19;107602;1253;73660;-40
2023/03/08 11:12:05;;;;;;;26.10;17.70;;;;;;;6.72;68.86;97875.41;107534;1257;61581;-40
2023/03/08 11:14:34;;;;;;;16.90;12.80;;;;;;;6.80;68.45;97878.27;107569;1253;61039;-40
2023/03/08 11:17:18;;;;;;;22.60;14.20;;;;;;;6.96;67.92;97880.80;107352;1253;74078;-40
2023/03/08 11:20:17;;;;;;;20.30;14.30;;;;;;;7.30;67.25;97883.95;107503;1254;69860;-41
2023/03/08 11:22:54;;;;;;;35.80;26.90;;;;;;;7.87;66.46;97877.63;107544;1253;72620;-40
2023/03/08 11:25:38;;;;;;;28.00;20.60;;;;;;;8.27;64.18;97872.73;107526;1253;60428;-41
2023/03/08 11:28:12;;;;;;;27.30;21.10;;;;;;;8.44;61.47;97870.27;107571;1253;60361;-40
2023/03/08 11:30:53;;;;;;;28.20;22.10;;;;;;;8.45;62.37;97862.18;107578;1254;75088;-41
2023/03/08 11:33:23;;;;;;;26.50;17.70;;;;;;;8.67;62.28;97871.19;107615;1253;69918;-41
2023/03/08 11:36:03;;;;;;;21.20;16.70;;;;;;;8.89;60.83;97876.63;107648;1253;72450;-41
2023/03/08 11:38:32;;;;;;;35.80;25.20;;;;;;;8.90;60.22;97883.13;107610;1257;61543;-41
2023/03/08 11:41:20;;;;;;;37.00;24.20;;;;;;;8.77;60.27;97878.94;107537;1254;61861;-41
2023/03/08 11:44:25;;;;;;;19.40;14.40;;;;;;;8.58;60.58;97886.68;107589;1253;75039;-41